sensor_id;sensor_type;location;lat;lon;timestamp;temperature;humidity
75824;DHT22;64457;51.976;9.834;2023-07-29T00:02:13;23.60;99.90
75824;DHT22;64457;51.976;9.834;2023-07-29T00:04:41;23.60;99.90
75824;DHT22;64457;51.976;9.834;2023-07-29T00:07:09;23.60;99.90
75824;DHT22;64457;51.976;9.834;2023-07-29T00:09:37;23.60;99.90
75824;DHT22;64457;51.976;9.834;2023-07-29T00:12:05;23.60;99.90
75824;DHT22;64457;51.976;9.834;2023-07-29T00:14:35;23.50;99.90
75824;DHT22;64457;51.976;9.834;2023-07-29T00:17:03;23.60;99.90
75824;DHT22;64457;51.976;9.834;2023-07-29T00:19:31;23.50;99.90
75824;DHT22;64457;51.976;9.834;2023-07-29T00:21:59;23.30;99.90
75824;DHT22;64457;51.976;9.834;2023-07-29T00:24:27;23.30;99.90
75824;DHT22;64457;51.976;9.834;2023-07-29T00:26:55;23.30;99.90
75824;DHT22;64457;51.976;9.834;2023-07-29T00:29:23;23.10;99.90
75824;DHT22;64457;51.976;9.834;2023-07-29T00:31:52;22.80;99.90
75824;DHT22;64457;51.976;9.834;2023-07-29T00:34:20;22.40;99.90
75824;DHT22;64457;51.976;9.834;2023-07-29T00:36:48;22.10;99.90
75824;DHT22;64457;51.976;9.834;2023-07-29T00:39:16;22.10;99.90
75824;DHT22;64457;51.976;9.834;2023-07-29T00:41:45;22.10;99.90
75824;DHT22;64457;51.976;9.834;2023-07-29T00:44:12;22.00;99.90
75824;DHT22;64457;51.976;9.834;2023-07-29T00:46:40;22.10;99.90
75824;DHT22;64457;51.976;9.834;2023-07-29T00:49:10;22.50;99.90
75824;DHT22;64457;51.976;9.834;2023-07-29T00:51:37;22.80;99.90
75824;DHT22;64457;51.976;9.834;2023-07-29T00:54:05;22.90;99.90
75824;DHT22;64457;51.976;9.834;2023-07-29T00:56:33;23.10;99.90
75824;DHT22;64457;51.976;9.834;2023-07-29T00:59:01;23.20;99.90
75824;DHT22;64457;51.976;9.834;2023-07-29T01:01:30;23.20;99.90
75824;DHT22;64457;51.976;9.834;2023-07-29T01:04:00;23.30;99.90
75824;DHT22;64457;51.976;9.834;2023-07-29T01:06:50;23.20;99.90
75824;DHT22;64457;51.976;9.834;2023-07-29T01:10:02;23.00;99.90
75824;DHT22;64457;51.976;9.834;2023-07-29T01:12:48;22.80;99.90
75824;DHT22;64457;51.976;9.834;2023-07-29T01:15:25;22.70;99.90
75824;DHT22;64457;51.976;9.834;2023-07-29T01:18:04;22.70;99.90
75824;DHT22;64457;51.976;9.834;2023-07-29T01:20:40;22.80;99.90
75824;DHT22;64457;51.976;9.834;2023-07-29T01:23:12;22.80;99.90
75824;DHT22;64457;51.976;9.834;2023-07-29T01:25:42;22.70;99.90
75824;DHT22;64457;51.976;9.834;2023-07-29T01:28:12;22.30;99.90
75824;DHT22;64457;51.976;9.834;2023-07-29T01:30:43;22.00;99.90
75824;DHT22;64457;51.976;9.834;2023-07-29T01:33:16;21.80;99.90
75824;DHT22;64457;51.976;9.834;2023-07-29T01:35:49;21.80;99.90
75824;DHT22;64457;51.976;9.834;2023-07-29T01:38:27;21.60;99.90
75824;DHT22;64457;51.976;9.834;2023-07-29T01:41:18;21.90;99.90
75824;DHT22;64457;51.976;9.834;2023-07-29T01:43:47;22.10;99.90
75824;DHT22;64457;51.976;9.834;2023-07-29T01:46:18;21.90;99.90
75824;DHT22;64457;51.976;9.834;2023-07-29T01:48:54;21.90;99.90
75824;DHT22;64457;51.976;9.834;2023-07-29T01:51:24;22.20;99.90
75824;DHT22;64457;51.976;9.834;2023-07-29T01:53:54;22.50;99.90
75824;DHT22;64457;51.976;9.834;2023-07-29T01:56:34;22.60;99.90
75824;DHT22;64457;51.976;9.834;2023-07-29T01:59:06;22.70;99.90
75824;DHT22;64457;51.976;9.834;2023-07-29T02:01:34;22.60;99.90
75824;DHT22;64457;51.976;9.834;2023-07-29T02:04:03;22.60;99.90
75824;DHT22;64457;51.976;9.834;2023-07-29T02:06:33;22.70;99.90
75824;DHT22;64457;51.976;9.834;2023-07-29T02:09:01;22.40;99.90
75824;DHT22;64457;51.976;9.834;2023-07-29T02:11:38;21.90;99.90
75824;DHT22;64457;51.976;9.834;2023-07-29T02:14:11;22.00;99.90
75824;DHT22;64457;51.976;9.834;2023-07-29T02:16:44;22.00;99.90
75824;DHT22;64457;51.976;9.834;2023-07-29T02:19:12;22.00;99.90
75824;DHT22;64457;51.976;9.834;2023-07-29T02:21:40;21.90;99.90
75824;DHT22;64457;51.976;9.834;2023-07-29T02:24:09;21.60;99.90
75824;DHT22;64457;51.976;9.834;2023-07-29T02:26:44;21.80;99.90
75824;DHT22;64457;51.976;9.834;2023-07-29T02:29:15;21.80;99.90
75824;DHT22;64457;51.976;9.834;2023-07-29T02:31:45;22.00;99.90
75824;DHT22;64457;51.976;9.834;2023-07-29T02:34:19;22.40;99.90
75824;DHT22;64457;51.976;9.834;2023-07-29T02:36:47;22.70;99.90
75824;DHT22;64457;51.976;9.834;2023-07-29T02:39:17;22.30;99.90
75824;DHT22;64457;51.976;9.834;2023-07-29T02:41:46;22.30;99.90
75824;DHT22;64457;51.976;9.834;2023-07-29T02:44:14;22.40;99.90
75824;DHT22;64457;51.976;9.834;2023-07-29T02:46:42;22.50;99.90
75824;DHT22;64457;51.976;9.834;2023-07-29T02:49:10;22.70;99.90
75824;DHT22;64457;51.976;9.834;2023-07-29T02:51:38;22.90;99.90
75824;DHT22;64457;51.976;9.834;2023-07-29T02:54:05;22.50;99.90
75824;DHT22;64457;51.976;9.834;2023-07-29T02:56:33;22.50;99.90
75824;DHT22;64457;51.976;9.834;2023-07-29T02:59:02;22.60;99.90
75824;DHT22;64457;51.976;9.834;2023-07-29T03:01:31;22.80;99.90
75824;DHT22;64457;51.976;9.834;2023-07-29T03:03:58;23.10;99.90
75824;DHT22;64457;51.976;9.834;2023-07-29T03:06:28;23.30;99.90
75824;DHT22;64457;51.976;9.834;2023-07-29T03:08:55;23.50;99.90
75824;DHT22;64457;51.976;9.834;2023-07-29T03:11:23;23.60;99.90
75824;DHT22;64457;51.976;9.834;2023-07-29T03:13:50;23.70;99.90
75824;DHT22;64457;51.976;9.834;2023-07-29T03:16:19;23.50;99.90
75824;DHT22;64457;51.976;9.834;2023-07-29T03:18:48;23.50;99.90
75824;DHT22;64457;51.976;9.834;2023-07-29T03:21:19;23.20;99.90
75824;DHT22;64457;51.976;9.834;2023-07-29T03:23:47;23.20;99.90
75824;DHT22;64457;51.976;9.834;2023-07-29T03:26:14;23.10;99.90
75824;DHT22;64457;51.976;9.834;2023-07-29T03:28:42;22.70;99.90
75824;DHT22;64457;51.976;9.834;2023-07-29T03:31:11;22.60;99.90
75824;DHT22;64457;51.976;9.834;2023-07-29T03:33:39;22.80;99.90
75824;DHT22;64457;51.976;9.834;2023-07-29T03:36:07;23.00;99.90
75824;DHT22;64457;51.976;9.834;2023-07-29T03:38:34;23.20;99.90
75824;DHT22;64457;51.976;9.834;2023-07-29T03:41:06;22.70;99.90
75824;DHT22;64457;51.976;9.834;2023-07-29T03:43:34;22.70;99.90
75824;DHT22;64457;51.976;9.834;2023-07-29T03:46:01;22.30;99.90
75824;DHT22;64457;51.976;9.834;2023-07-29T03:48:29;22.10;99.90
75824;DHT22;64457;51.976;9.834;2023-07-29T03:50:58;21.90;99.90
75824;DHT22;64457;51.976;9.834;2023-07-29T03:53:26;21.70;99.90
75824;DHT22;64457;51.976;9.834;2023-07-29T03:55:53;21.70;99.90
75824;DHT22;64457;51.976;9.834;2023-07-29T03:58:22;22.10;99.90
75824;DHT22;64457;51.976;9.834;2023-07-29T04:00:50;22.30;99.90
75824;DHT22;64457;51.976;9.834;2023-07-29T04:03:17;22.40;99.90
75824;DHT22;64457;51.976;9.834;2023-07-29T04:05:45;22.60;99.90
75824;DHT22;64457;51.976;9.834;2023-07-29T04:08:13;22.40;99.90
75824;DHT22;64457;51.976;9.834;2023-07-29T04:10:41;22.30;99.90
75824;DHT22;64457;51.976;9.834;2023-07-29T04:13:09;22.40;99.90
75824;DHT22;64457;51.976;9.834;2023-07-29T04:15:36;22.60;99.90
75824;DHT22;64457;51.976;9.834;2023-07-29T04:18:04;22.50;99.90
75824;DHT22;64457;51.976;9.834;2023-07-29T04:20:31;22.70;99.90
75824;DHT22;64457;51.976;9.834;2023-07-29T04:23:01;22.60;99.90
75824;DHT22;64457;51.976;9.834;2023-07-29T04:25:30;22.60;99.90
75824;DHT22;64457;51.976;9.834;2023-07-29T04:27:57;22.40;99.90
75824;DHT22;64457;51.976;9.834;2023-07-29T04:30:25;22.30;99.90
75824;DHT22;64457;51.976;9.834;2023-07-29T04:32:52;22.60;99.90
75824;DHT22;64457;51.976;9.834;2023-07-29T04:35:20;22.90;99.90
75824;DHT22;64457;51.976;9.834;2023-07-29T04:37:48;23.10;99.90
75824;DHT22;64457;51.976;9.834;2023-07-29T04:40:16;23.30;99.90
75824;DHT22;64457;51.976;9.834;2023-07-29T04:42:44;23.30;99.90
75824;DHT22;64457;51.976;9.834;2023-07-29T04:45:12;23.40;99.90
75824;DHT22;64457;51.976;9.834;2023-07-29T04:47:43;23.50;99.90
75824;DHT22;64457;51.976;9.834;2023-07-29T04:50:11;23.40;99.90
75824;DHT22;64457;51.976;9.834;2023-07-29T04:52:39;23.30;99.90
75824;DHT22;64457;51.976;9.834;2023-07-29T04:55:07;23.20;99.90
75824;DHT22;64457;51.976;9.834;2023-07-29T04:57:37;23.30;99.90
75824;DHT22;64457;51.976;9.834;2023-07-29T05:00:07;23.50;99.90
75824;DHT22;64457;51.976;9.834;2023-07-29T05:02:35;23.70;99.90
75824;DHT22;64457;51.976;9.834;2023-07-29T05:05:03;23.50;99.90
75824;DHT22;64457;51.976;9.834;2023-07-29T05:07:31;23.40;99.90
75824;DHT22;64457;51.976;9.834;2023-07-29T05:09:59;23.40;99.90
75824;DHT22;64457;51.976;9.834;2023-07-29T05:12:27;23.10;99.90
75824;DHT22;64457;51.976;9.834;2023-07-29T05:14:55;22.90;99.90
75824;DHT22;64457;51.976;9.834;2023-07-29T05:17:24;22.90;99.90
75824;DHT22;64457;51.976;9.834;2023-07-29T05:19:51;22.60;99.90
75824;DHT22;64457;51.976;9.834;2023-07-29T05:22:22;22.30;99.90
75824;DHT22;64457;51.976;9.834;2023-07-29T05:24:51;21.90;99.90
75824;DHT22;64457;51.976;9.834;2023-07-29T05:27:18;22.00;99.90
75824;DHT22;64457;51.976;9.834;2023-07-29T05:29:46;22.20;99.90
75824;DHT22;64457;51.976;9.834;2023-07-29T05:32:13;22.20;99.90
75824;DHT22;64457;51.976;9.834;2023-07-29T05:34:45;22.40;99.90
75824;DHT22;64457;51.976;9.834;2023-07-29T05:37:12;22.20;99.90
75824;DHT22;64457;51.976;9.834;2023-07-29T05:39:42;22.50;99.90
75824;DHT22;64457;51.976;9.834;2023-07-29T05:42:09;22.70;99.90
75824;DHT22;64457;51.976;9.834;2023-07-29T05:44:37;23.10;99.90
75824;DHT22;64457;51.976;9.834;2023-07-29T05:47:05;23.10;99.90
75824;DHT22;64457;51.976;9.834;2023-07-29T05:49:33;22.60;99.90
75824;DHT22;64457;51.976;9.834;2023-07-29T05:52:05;22.50;99.90
75824;DHT22;64457;51.976;9.834;2023-07-29T05:54:33;22.60;99.90
75824;DHT22;64457;51.976;9.834;2023-07-29T05:57:01;22.30;99.90
75824;DHT22;64457;51.976;9.834;2023-07-29T05:59:29;22.00;99.90
75824;DHT22;64457;51.976;9.834;2023-07-29T06:01:56;21.80;99.90
75824;DHT22;64457;51.976;9.834;2023-07-29T06:04:24;21.70;99.90
75824;DHT22;64457;51.976;9.834;2023-07-29T06:06:52;21.70;99.90
75824;DHT22;64457;51.976;9.834;2023-07-29T06:09:22;22.00;99.90
75824;DHT22;64457;51.976;9.834;2023-07-29T06:11:51;22.30;99.90
75824;DHT22;64457;51.976;9.834;2023-07-29T06:14:18;22.70;99.90
75824;DHT22;64457;51.976;9.834;2023-07-29T06:16:46;22.80;99.90
75824;DHT22;64457;51.976;9.834;2023-07-29T06:19:13;23.00;99.90
75824;DHT22;64457;51.976;9.834;2023-07-29T06:21:41;23.10;99.90
75824;DHT22;64457;51.976;9.834;2023-07-29T06:24:09;23.20;99.90
75824;DHT22;64457;51.976;9.834;2023-07-29T06:26:38;23.20;99.90
75824;DHT22;64457;51.976;9.834;2023-07-29T06:29:06;23.30;99.90
75824;DHT22;64457;51.976;9.834;2023-07-29T06:31:34;23.40;99.90
75824;DHT22;64457;51.976;9.834;2023-07-29T06:34:02;23.60;99.90
75824;DHT22;64457;51.976;9.834;2023-07-29T06:36:30;23.30;99.90
75824;DHT22;64457;51.976;9.834;2023-07-29T06:38:57;23.10;99.90
75824;DHT22;64457;51.976;9.834;2023-07-29T06:41:25;23.00;99.90
75824;DHT22;64457;51.976;9.834;2023-07-29T06:43:54;22.80;99.90
75824;DHT22;64457;51.976;9.834;2023-07-29T06:46:22;22.60;99.90
75824;DHT22;64457;51.976;9.834;2023-07-29T06:48:51;22.50;99.90
75824;DHT22;64457;51.976;9.834;2023-07-29T06:51:19;22.70;99.90
75824;DHT22;64457;51.976;9.834;2023-07-29T06:53:46;23.10;99.90
75824;DHT22;64457;51.976;9.834;2023-07-29T06:56:14;23.60;99.90
75824;DHT22;64457;51.976;9.834;2023-07-29T06:58:42;23.20;99.90
75824;DHT22;64457;51.976;9.834;2023-07-29T07:01:10;22.60;99.90
75824;DHT22;64457;51.976;9.834;2023-07-29T07:03:38;22.50;99.90
75824;DHT22;64457;51.976;9.834;2023-07-29T07:06:06;22.80;99.90
75824;DHT22;64457;51.976;9.834;2023-07-29T07:08:36;22.60;99.90
75824;DHT22;64457;51.976;9.834;2023-07-29T07:11:03;22.80;99.90
75824;DHT22;64457;51.976;9.834;2023-07-29T07:13:30;22.50;99.90
75824;DHT22;64457;51.976;9.834;2023-07-29T07:15:58;22.50;99.90
75824;DHT22;64457;51.976;9.834;2023-07-29T07:18:27;22.40;99.90
75824;DHT22;64457;51.976;9.834;2023-07-29T07:20:54;22.30;99.90
75824;DHT22;64457;51.976;9.834;2023-07-29T07:23:25;22.40;99.90
75824;DHT22;64457;51.976;9.834;2023-07-29T07:25:53;22.60;99.90
75824;DHT22;64457;51.976;9.834;2023-07-29T07:28:21;22.80;99.90
75824;DHT22;64457;51.976;9.834;2023-07-29T07:30:51;22.70;99.90
75824;DHT22;64457;51.976;9.834;2023-07-29T07:33:21;22.40;99.90
75824;DHT22;64457;51.976;9.834;2023-07-29T07:35:50;22.50;99.90
75824;DHT22;64457;51.976;9.834;2023-07-29T07:38:18;22.70;99.90
75824;DHT22;64457;51.976;9.834;2023-07-29T07:40:53;22.30;99.90
75824;DHT22;64457;51.976;9.834;2023-07-29T07:43:21;22.60;99.90
75824;DHT22;64457;51.976;9.834;2023-07-29T07:45:49;23.00;99.90
75824;DHT22;64457;51.976;9.834;2023-07-29T07:48:18;23.40;99.90
75824;DHT22;64457;51.976;9.834;2023-07-29T07:50:46;23.70;99.90
75824;DHT22;64457;51.976;9.834;2023-07-29T07:53:14;23.50;99.90
75824;DHT22;64457;51.976;9.834;2023-07-29T07:55:42;23.10;99.90
75824;DHT22;64457;51.976;9.834;2023-07-29T07:58:10;22.80;99.90
75824;DHT22;64457;51.976;9.834;2023-07-29T08:00:38;22.50;99.90
75824;DHT22;64457;51.976;9.834;2023-07-29T08:03:05;22.60;99.90
75824;DHT22;64457;51.976;9.834;2023-07-29T08:05:33;23.00;99.90
75824;DHT22;64457;51.976;9.834;2023-07-29T08:08:01;23.70;99.90
75824;DHT22;64457;51.976;9.834;2023-07-29T08:10:31;24.10;99.90
75824;DHT22;64457;51.976;9.834;2023-07-29T08:13:00;24.00;99.90
75824;DHT22;64457;51.976;9.834;2023-07-29T08:15:27;24.20;99.90
75824;DHT22;64457;51.976;9.834;2023-07-29T08:17:55;24.20;99.90
75824;DHT22;64457;51.976;9.834;2023-07-29T08:20:23;24.30;99.90
75824;DHT22;64457;51.976;9.834;2023-07-29T08:22:50;24.60;99.90
75824;DHT22;64457;51.976;9.834;2023-07-29T08:25:18;24.40;99.90
75824;DHT22;64457;51.976;9.834;2023-07-29T08:27:47;24.40;99.90
75824;DHT22;64457;51.976;9.834;2023-07-29T08:30:14;24.60;99.90
75824;DHT22;64457;51.976;9.834;2023-07-29T08:32:44;24.90;99.90
75824;DHT22;64457;51.976;9.834;2023-07-29T08:35:12;25.20;99.90
75824;DHT22;64457;51.976;9.834;2023-07-29T08:37:39;24.90;99.90
75824;DHT22;64457;51.976;9.834;2023-07-29T08:40:13;24.90;99.90
75824;DHT22;64457;51.976;9.834;2023-07-29T08:42:42;24.70;99.90
75824;DHT22;64457;51.976;9.834;2023-07-29T08:45:13;24.30;99.90
75824;DHT22;64457;51.976;9.834;2023-07-29T08:47:42;24.10;99.90
75824;DHT22;64457;51.976;9.834;2023-07-29T08:50:13;23.70;99.90
75824;DHT22;64457;51.976;9.834;2023-07-29T08:52:43;23.60;99.90
75824;DHT22;64457;51.976;9.834;2023-07-29T08:55:11;23.30;99.90
75824;DHT22;64457;51.976;9.834;2023-07-29T08:57:39;23.20;99.90
75824;DHT22;64457;51.976;9.834;2023-07-29T09:00:09;23.30;99.90
75824;DHT22;64457;51.976;9.834;2023-07-29T09:02:42;23.60;99.90
75824;DHT22;64457;51.976;9.834;2023-07-29T09:05:13;24.20;99.90
75824;DHT22;64457;51.976;9.834;2023-07-29T09:07:56;24.80;99.90
75824;DHT22;64457;51.976;9.834;2023-07-29T09:10:25;25.50;99.90
75824;DHT22;64457;51.976;9.834;2023-07-29T09:12:56;25.70;99.90
75824;DHT22;64457;51.976;9.834;2023-07-29T09:15:29;25.90;99.90
75824;DHT22;64457;51.976;9.834;2023-07-29T09:17:58;26.10;99.90
75824;DHT22;64457;51.976;9.834;2023-07-29T09:20:26;26.10;99.90
75824;DHT22;64457;51.976;9.834;2023-07-29T09:22:57;26.30;99.90
75824;DHT22;64457;51.976;9.834;2023-07-29T09:25:29;26.40;99.90
75824;DHT22;64457;51.976;9.834;2023-07-29T09:27:59;26.10;99.90
75824;DHT22;64457;51.976;9.834;2023-07-29T09:30:28;26.20;99.90
75824;DHT22;64457;51.976;9.834;2023-07-29T09:32:56;26.10;99.90
75824;DHT22;64457;51.976;9.834;2023-07-29T09:35:24;26.20;99.90
75824;DHT22;64457;51.976;9.834;2023-07-29T09:37:53;26.70;99.90
75824;DHT22;64457;51.976;9.834;2023-07-29T09:40:21;27.20;99.70
75824;DHT22;64457;51.976;9.834;2023-07-29T09:42:49;27.00;99.70
75824;DHT22;64457;51.976;9.834;2023-07-29T09:45:21;26.60;99.90
75824;DHT22;64457;51.976;9.834;2023-07-29T09:47:52;26.80;99.90
75824;DHT22;64457;51.976;9.834;2023-07-29T09:50:25;27.30;98.90
75824;DHT22;64457;51.976;9.834;2023-07-29T09:52:54;27.80;99.90
75824;DHT22;64457;51.976;9.834;2023-07-29T09:55:25;28.40;98.70
75824;DHT22;64457;51.976;9.834;2023-07-29T09:57:54;28.80;97.10
75824;DHT22;64457;51.976;9.834;2023-07-29T10:00:24;28.60;96.40
75824;DHT22;64457;51.976;9.834;2023-07-29T10:02:53;28.50;96.50
75824;DHT22;64457;51.976;9.834;2023-07-29T10:05:22;27.80;97.60
75824;DHT22;64457;51.976;9.834;2023-07-29T10:07:56;27.70;97.80
75824;DHT22;64457;51.976;9.834;2023-07-29T10:10:24;27.60;97.60
75824;DHT22;64457;51.976;9.834;2023-07-29T10:12:54;27.50;96.80
75824;DHT22;64457;51.976;9.834;2023-07-29T10:15:22;27.80;97.00
75824;DHT22;64457;51.976;9.834;2023-07-29T10:17:50;27.80;96.90
75824;DHT22;64457;51.976;9.834;2023-07-29T10:20:21;27.80;96.80
75824;DHT22;64457;51.976;9.834;2023-07-29T10:22:54;27.50;96.60
75824;DHT22;64457;51.976;9.834;2023-07-29T10:25:30;27.40;96.70
75824;DHT22;64457;51.976;9.834;2023-07-29T10:28:07;27.20;97.00
75824;DHT22;64457;51.976;9.834;2023-07-29T10:30:36;26.70;97.40
75824;DHT22;64457;51.976;9.834;2023-07-29T10:33:10;26.80;97.60
75824;DHT22;64457;51.976;9.834;2023-07-29T10:35:41;27.10;97.30
75824;DHT22;64457;51.976;9.834;2023-07-29T10:38:11;27.20;97.00
75824;DHT22;64457;51.976;9.834;2023-07-29T10:40:47;27.60;96.00
75824;DHT22;64457;51.976;9.834;2023-07-29T10:43:19;27.60;95.90
75824;DHT22;64457;51.976;9.834;2023-07-29T10:45:52;28.00;95.10
75824;DHT22;64457;51.976;9.834;2023-07-29T10:48:42;27.90;95.10
75824;DHT22;64457;51.976;9.834;2023-07-29T10:51:27;27.60;95.10
75824;DHT22;64457;51.976;9.834;2023-07-29T10:53:58;27.30;95.40
75824;DHT22;64457;51.976;9.834;2023-07-29T10:56:29;27.30;95.90
75824;DHT22;64457;51.976;9.834;2023-07-29T10:59:31;27.80;95.80
75824;DHT22;64457;51.976;9.834;2023-07-29T11:02:03;27.90;94.70
75824;DHT22;64457;51.976;9.834;2023-07-29T11:04:49;27.90;94.60
75824;DHT22;64457;51.976;9.834;2023-07-29T11:07:27;27.80;93.30
75824;DHT22;64457;51.976;9.834;2023-07-29T11:10:01;27.50;94.30
75824;DHT22;64457;51.976;9.834;2023-07-29T11:12:41;27.10;94.70
75824;DHT22;64457;51.976;9.834;2023-07-29T11:15:17;26.90;94.30
75824;DHT22;64457;51.976;9.834;2023-07-29T11:17:47;27.10;94.90
75824;DHT22;64457;51.976;9.834;2023-07-29T11:20:17;27.50;92.90
75824;DHT22;64457;51.976;9.834;2023-07-29T11:22:49;27.30;93.50
75824;DHT22;64457;51.976;9.834;2023-07-29T11:25:24;27.10;92.70
75824;DHT22;64457;51.976;9.834;2023-07-29T11:27:53;27.10;93.20
75824;DHT22;64457;51.976;9.834;2023-07-29T11:30:31;27.30;92.80
75824;DHT22;64457;51.976;9.834;2023-07-29T11:33:02;27.50;92.30
75824;DHT22;64457;51.976;9.834;2023-07-29T11:35:36;27.30;92.10
75824;DHT22;64457;51.976;9.834;2023-07-29T11:38:05;27.50;91.20
75824;DHT22;64457;51.976;9.834;2023-07-29T11:40:34;27.60;91.60
75824;DHT22;64457;51.976;9.834;2023-07-29T11:43:01;27.20;90.50
75824;DHT22;64457;51.976;9.834;2023-07-29T11:45:30;27.40;90.90
75824;DHT22;64457;51.976;9.834;2023-07-29T11:47:57;26.90;91.00
75824;DHT22;64457;51.976;9.834;2023-07-29T11:50:32;27.20;90.30
75824;DHT22;64457;51.976;9.834;2023-07-29T11:53:00;27.30;89.60
75824;DHT22;64457;51.976;9.834;2023-07-29T11:55:30;26.80;82.90
75824;DHT22;64457;51.976;9.834;2023-07-29T11:57:59;27.00;86.60
75824;DHT22;64457;51.976;9.834;2023-07-29T12:00:28;26.70;84.50
75824;DHT22;64457;51.976;9.834;2023-07-29T12:02:56;26.40;85.90
75824;DHT22;64457;51.976;9.834;2023-07-29T12:05:26;26.30;84.80
75824;DHT22;64457;51.976;9.834;2023-07-29T12:07:57;26.30;85.00
75824;DHT22;64457;51.976;9.834;2023-07-29T12:10:26;26.70;87.30
75824;DHT22;64457;51.976;9.834;2023-07-29T12:12:55;27.30;87.20
75824;DHT22;64457;51.976;9.834;2023-07-29T12:15:24;27.80;86.80
75824;DHT22;64457;51.976;9.834;2023-07-29T12:17:56;28.00;83.50
75824;DHT22;64457;51.976;9.834;2023-07-29T12:20:24;28.10;84.60
75824;DHT22;64457;51.976;9.834;2023-07-29T12:22:59;28.00;82.10
75824;DHT22;64457;51.976;9.834;2023-07-29T12:25:32;28.00;84.20
75824;DHT22;64457;51.976;9.834;2023-07-29T12:28:05;27.90;82.00
75824;DHT22;64457;51.976;9.834;2023-07-29T12:30:42;27.90;83.00
75824;DHT22;64457;51.976;9.834;2023-07-29T12:33:10;28.10;82.90
75824;DHT22;64457;51.976;9.834;2023-07-29T12:35:38;28.40;83.10
75824;DHT22;64457;51.976;9.834;2023-07-29T12:38:07;28.60;80.90
75824;DHT22;64457;51.976;9.834;2023-07-29T12:40:38;28.70;81.80
75824;DHT22;64457;51.976;9.834;2023-07-29T12:43:08;28.60;79.70
75824;DHT22;64457;51.976;9.834;2023-07-29T12:45:38;28.50;78.50
75824;DHT22;64457;51.976;9.834;2023-07-29T12:48:07;28.30;79.40
75824;DHT22;64457;51.976;9.834;2023-07-29T12:50:34;28.40;80.40
75824;DHT22;64457;51.976;9.834;2023-07-29T12:53:02;28.10;79.00
75824;DHT22;64457;51.976;9.834;2023-07-29T12:55:31;28.00;77.20
75824;DHT22;64457;51.976;9.834;2023-07-29T12:57:58;27.60;77.20
75824;DHT22;64457;51.976;9.834;2023-07-29T13:00:26;27.70;79.10
75824;DHT22;64457;51.976;9.834;2023-07-29T13:02:54;27.70;79.00
75824;DHT22;64457;51.976;9.834;2023-07-29T13:05:22;27.80;78.50
75824;DHT22;64457;51.976;9.834;2023-07-29T13:07:50;28.00;76.80
75824;DHT22;64457;51.976;9.834;2023-07-29T13:10:18;28.10;78.70
75824;DHT22;64457;51.976;9.834;2023-07-29T13:12:47;28.40;77.60
75824;DHT22;64457;51.976;9.834;2023-07-29T13:15:15;28.50;77.90
75824;DHT22;64457;51.976;9.834;2023-07-29T13:17:42;28.00;74.40
75824;DHT22;64457;51.976;9.834;2023-07-29T13:20:10;27.60;77.10
75824;DHT22;64457;51.976;9.834;2023-07-29T13:22:38;27.50;75.40
75824;DHT22;64457;51.976;9.834;2023-07-29T13:25:09;27.70;79.80
75824;DHT22;64457;51.976;9.834;2023-07-29T13:27:36;27.60;78.00
75824;DHT22;64457;51.976;9.834;2023-07-29T13:30:07;27.40;79.40
75824;DHT22;64457;51.976;9.834;2023-07-29T13:32:36;27.50;79.10
75824;DHT22;64457;51.976;9.834;2023-07-29T13:35:04;27.90;79.30
75824;DHT22;64457;51.976;9.834;2023-07-29T13:37:32;28.30;79.00
75824;DHT22;64457;51.976;9.834;2023-07-29T13:40:00;28.30;77.90
75824;DHT22;64457;51.976;9.834;2023-07-29T13:42:28;28.30;78.70
75824;DHT22;64457;51.976;9.834;2023-07-29T13:44:58;28.70;77.30
75824;DHT22;64457;51.976;9.834;2023-07-29T13:47:28;28.80;77.60
75824;DHT22;64457;51.976;9.834;2023-07-29T13:49:55;28.80;76.20
75824;DHT22;64457;51.976;9.834;2023-07-29T13:52:27;28.30;76.00
75824;DHT22;64457;51.976;9.834;2023-07-29T13:54:54;27.90;78.20
75824;DHT22;64457;51.976;9.834;2023-07-29T13:57:22;28.00;77.10
75824;DHT22;64457;51.976;9.834;2023-07-29T13:59:50;28.00;79.40
75824;DHT22;64457;51.976;9.834;2023-07-29T14:02:17;28.10;78.60
75824;DHT22;64457;51.976;9.834;2023-07-29T14:04:47;28.40;78.00
75824;DHT22;64457;51.976;9.834;2023-07-29T14:07:14;28.60;77.00
75824;DHT22;64457;51.976;9.834;2023-07-29T14:09:42;28.60;78.20
75824;DHT22;64457;51.976;9.834;2023-07-29T14:12:10;28.70;78.30
75824;DHT22;64457;51.976;9.834;2023-07-29T14:14:40;28.80;77.90
75824;DHT22;64457;51.976;9.834;2023-07-29T14:17:09;28.80;77.40
75824;DHT22;64457;51.976;9.834;2023-07-29T14:19:39;28.70;78.00
75824;DHT22;64457;51.976;9.834;2023-07-29T14:22:08;28.60;76.40
75824;DHT22;64457;51.976;9.834;2023-07-29T14:24:36;28.60;77.10
75824;DHT22;64457;51.976;9.834;2023-07-29T14:27:04;28.70;78.20
75824;DHT22;64457;51.976;9.834;2023-07-29T14:29:33;28.40;76.00
75824;DHT22;64457;51.976;9.834;2023-07-29T14:32:00;28.20;76.90
75824;DHT22;64457;51.976;9.834;2023-07-29T14:34:30;28.10;77.10
75824;DHT22;64457;51.976;9.834;2023-07-29T14:36:58;27.80;77.70
75824;DHT22;64457;51.976;9.834;2023-07-29T14:39:27;27.80;77.90
75824;DHT22;64457;51.976;9.834;2023-07-29T14:41:55;27.60;77.70
75824;DHT22;64457;51.976;9.834;2023-07-29T14:44:23;27.40;79.20
75824;DHT22;64457;51.976;9.834;2023-07-29T14:46:53;27.60;78.90
75824;DHT22;64457;51.976;9.834;2023-07-29T14:49:21;27.60;78.70
75824;DHT22;64457;51.976;9.834;2023-07-29T14:51:48;27.60;77.60
75824;DHT22;64457;51.976;9.834;2023-07-29T14:54:16;27.40;79.20
75824;DHT22;64457;51.976;9.834;2023-07-29T14:56:45;27.40;79.20
75824;DHT22;64457;51.976;9.834;2023-07-29T14:59:13;27.50;79.20
75824;DHT22;64457;51.976;9.834;2023-07-29T15:01:40;27.50;79.10
75824;DHT22;64457;51.976;9.834;2023-07-29T15:04:08;27.50;78.80
75824;DHT22;64457;51.976;9.834;2023-07-29T15:06:35;27.40;79.20
75824;DHT22;64457;51.976;9.834;2023-07-29T15:09:04;27.20;78.20
75824;DHT22;64457;51.976;9.834;2023-07-29T15:11:32;26.90;79.70
75824;DHT22;64457;51.976;9.834;2023-07-29T15:14:01;26.90;81.70
75824;DHT22;64457;51.976;9.834;2023-07-29T15:16:29;27.10;80.20
75824;DHT22;64457;51.976;9.834;2023-07-29T15:18:58;27.20;80.20
75824;DHT22;64457;51.976;9.834;2023-07-29T15:21:25;26.90;79.10
75824;DHT22;64457;51.976;9.834;2023-07-29T15:23:53;26.60;79.60
75824;DHT22;64457;51.976;9.834;2023-07-29T15:26:20;26.50;81.80
75824;DHT22;64457;51.976;9.834;2023-07-29T15:28:47;26.50;81.90
75824;DHT22;64457;51.976;9.834;2023-07-29T15:31:17;26.50;81.60
75824;DHT22;64457;51.976;9.834;2023-07-29T15:33:44;26.20;81.70
75824;DHT22;64457;51.976;9.834;2023-07-29T15:36:12;26.00;82.50
75824;DHT22;64457;51.976;9.834;2023-07-29T15:38:42;26.00;82.60
75824;DHT22;64457;51.976;9.834;2023-07-29T15:41:14;26.10;82.20
75824;DHT22;64457;51.976;9.834;2023-07-29T15:43:43;26.20;83.20
75824;DHT22;64457;51.976;9.834;2023-07-29T15:46:11;26.40;79.70